sensor_id;sensor_type;location;lat;lon;timestamp;P1;durP1;ratioP1;P2;durP2;ratioP2
39874;SDS011;25547;52.530;13.194;2022-08-19T00:01:20;6.90;;;5.00;;
39874;SDS011;25547;52.530;13.194;2022-08-19T00:03:48;8.13;;;5.72;;
39874;SDS011;25547;52.530;13.194;2022-08-19T00:06:16;8.05;;;5.20;;
39874;SDS011;25547;52.530;13.194;2022-08-19T00:08:42;7.45;;;5.38;;
39874;SDS011;25547;52.530;13.194;2022-08-19T00:11:08;8.57;;;4.88;;
39874;SDS011;25547;52.530;13.194;2022-08-19T00:13:34;8.65;;;5.07;;
39874;SDS011;25547;52.530;13.194;2022-08-19T00:16:01;6.88;;;5.15;;
39874;SDS011;25547;52.530;13.194;2022-08-19T00:18:27;5.72;;;5.03;;
39874;SDS011;25547;52.530;13.194;2022-08-19T00:20:53;6.93;;;4.80;;
39874;SDS011;25547;52.530;13.194;2022-08-19T00:23:19;7.38;;;5.45;;
39874;SDS011;25547;52.530;13.194;2022-08-19T00:25:45;6.20;;;5.25;;
39874;SDS011;25547;52.530;13.194;2022-08-19T00:28:10;6.47;;;5.13;;
39874;SDS011;25547;52.530;13.194;2022-08-19T00:30:36;7.68;;;5.32;;
39874;SDS011;25547;52.530;13.194;2022-08-19T00:33:02;6.70;;;4.50;;
39874;SDS011;25547;52.530;13.194;2022-08-19T00:35:28;5.35;;;4.47;;
39874;SDS011;25547;52.530;13.194;2022-08-19T00:37:56;7.18;;;4.53;;
39874;SDS011;25547;52.530;13.194;2022-08-19T00:40:23;6.35;;;4.32;;
39874;SDS011;25547;52.530;13.194;2022-08-19T00:42:49;6.68;;;4.45;;
39874;SDS011;25547;52.530;13.194;2022-08-19T00:45:22;5.40;;;4.05;;
39874;SDS011;25547;52.530;13.194;2022-08-19T00:47:53;4.85;;;3.95;;
39874;SDS011;25547;52.530;13.194;2022-08-19T00:50:21;5.30;;;4.32;;
39874;SDS011;25547;52.530;13.194;2022-08-19T00:52:50;5.22;;;4.05;;
39874;SDS011;25547;52.530;13.194;2022-08-19T00:55:20;5.70;;;5.10;;
39874;SDS011;25547;52.530;13.194;2022-08-19T00:57:53;5.30;;;4.40;;
39874;SDS011;25547;52.530;13.194;2022-08-19T01:00:25;6.28;;;4.43;;
39874;SDS011;25547;52.530;13.194;2022-08-19T01:02:55;7.30;;;4.22;;
39874;SDS011;25547;52.530;13.194;2022-08-19T01:05:25;5.40;;;4.63;;
39874;SDS011;25547;52.530;13.194;2022-08-19T01:07:55;4.75;;;3.78;;
39874;SDS011;25547;52.530;13.194;2022-08-19T01:10:24;5.78;;;4.35;;
39874;SDS011;25547;52.530;13.194;2022-08-19T01:15:20;6.03;;;4.53;;
39874;SDS011;25547;52.530;13.194;2022-08-19T01:17:50;9.45;;;4.35;;
39874;SDS011;25547;52.530;13.194;2022-08-19T01:20:21;8.63;;;4.72;;
39874;SDS011;25547;52.530;13.194;2022-08-19T01:22:49;6.13;;;4.53;;
39874;SDS011;25547;52.530;13.194;2022-08-19T01:25:20;7.10;;;5.05;;
39874;SDS011;25547;52.530;13.194;2022-08-19T01:27:49;5.35;;;4.20;;
39874;SDS011;25547;52.530;13.194;2022-08-19T01:30:22;4.82;;;4.18;;
39874;SDS011;25547;52.530;13.194;2022-08-19T01:32:56;4.55;;;3.75;;
39874;SDS011;25547;52.530;13.194;2022-08-19T01:35:24;5.47;;;3.40;;
39874;SDS011;25547;52.530;13.194;2022-08-19T01:40:24;6.38;;;3.53;;
39874;SDS011;25547;52.530;13.194;2022-08-19T01:42:51;5.55;;;4.13;;
39874;SDS011;25547;52.530;13.194;2022-08-19T01:45:19;6.30;;;3.83;;
39874;SDS011;25547;52.530;13.194;2022-08-19T01:47:48;4.32;;;3.60;;
39874;SDS011;25547;52.530;13.194;2022-08-19T01:52:43;4.90;;;3.70;;
39874;SDS011;25547;52.530;13.194;2022-08-19T01:55:10;5.57;;;3.80;;
39874;SDS011;25547;52.530;13.194;2022-08-19T01:57:39;12.00;;;4.60;;
39874;SDS011;25547;52.530;13.194;2022-08-19T02:00:09;5.90;;;4.43;;
39874;SDS011;25547;52.530;13.194;2022-08-19T02:02:40;6.93;;;4.15;;
39874;SDS011;25547;52.530;13.194;2022-08-19T02:05:06;7.00;;;4.25;;
39874;SDS011;25547;52.530;13.194;2022-08-19T02:07:35;6.40;;;4.25;;
39874;SDS011;25547;52.530;13.194;2022-08-19T02:10:08;6.43;;;4.55;;
39874;SDS011;25547;52.530;13.194;2022-08-19T02:12:36;8.75;;;5.18;;
39874;SDS011;25547;52.530;13.194;2022-08-19T02:15:02;5.80;;;4.40;;
39874;SDS011;25547;52.530;13.194;2022-08-19T02:17:28;6.38;;;4.90;;
39874;SDS011;25547;52.530;13.194;2022-08-19T02:19:55;7.40;;;5.38;;
39874;SDS011;25547;52.530;13.194;2022-08-19T02:22:24;7.20;;;5.45;;
39874;SDS011;25547;52.530;13.194;2022-08-19T02:24:53;9.45;;;5.75;;
39874;SDS011;25547;52.530;13.194;2022-08-19T02:27:20;8.98;;;5.95;;
39874;SDS011;25547;52.530;13.194;2022-08-19T02:29:48;8.20;;;6.07;;
39874;SDS011;25547;52.530;13.194;2022-08-19T02:32:15;7.05;;;6.25;;
39874;SDS011;25547;52.530;13.194;2022-08-19T02:34:41;9.48;;;7.00;;
39874;SDS011;25547;52.530;13.194;2022-08-19T02:37:07;10.15;;;8.57;;
39874;SDS011;25547;52.530;13.194;2022-08-19T02:39:53;8.65;;;6.80;;
39874;SDS011;25547;52.530;13.194;2022-08-19T02:42:21;9.70;;;7.30;;
39874;SDS011;25547;52.530;13.194;2022-08-19T02:44:47;12.50;;;8.48;;
39874;SDS011;25547;52.530;13.194;2022-08-19T02:47:15;10.13;;;8.68;;
39874;SDS011;25547;52.530;13.194;2022-08-19T02:49:41;10.98;;;8.70;;
39874;SDS011;25547;52.530;13.194;2022-08-19T02:52:09;9.40;;;7.20;;
39874;SDS011;25547;52.530;13.194;2022-08-19T02:54:36;12.57;;;8.45;;
39874;SDS011;25547;52.530;13.194;2022-08-19T02:57:04;12.18;;;8.15;;
39874;SDS011;25547;52.530;13.194;2022-08-19T02:59:31;10.05;;;7.18;;
39874;SDS011;25547;52.530;13.194;2022-08-19T03:01:59;10.02;;;7.00;;
39874;SDS011;25547;52.530;13.194;2022-08-19T03:04:27;11.75;;;7.93;;
39874;SDS011;25547;52.530;13.194;2022-08-19T03:06:53;9.65;;;7.03;;
39874;SDS011;25547;52.530;13.194;2022-08-19T03:09:21;9.63;;;8.00;;
39874;SDS011;25547;52.530;13.194;2022-08-19T03:11:47;12.82;;;7.72;;
39874;SDS011;25547;52.530;13.194;2022-08-19T03:14:13;9.30;;;6.93;;
39874;SDS011;25547;52.530;13.194;2022-08-19T03:16:41;13.45;;;8.27;;
39874;SDS011;25547;52.530;13.194;2022-08-19T03:19:18;10.10;;;7.75;;
39874;SDS011;25547;52.530;13.194;2022-08-19T03:21:46;9.35;;;7.72;;
39874;SDS011;25547;52.530;13.194;2022-08-19T03:24:18;11.38;;;7.65;;
39874;SDS011;25547;52.530;13.194;2022-08-19T03:26:47;8.27;;;7.30;;
39874;SDS011;25547;52.530;13.194;2022-08-19T03:29:16;9.40;;;7.03;;
39874;SDS011;25547;52.530;13.194;2022-08-19T03:31:45;9.23;;;7.63;;
39874;SDS011;25547;52.530;13.194;2022-08-19T03:34:12;8.77;;;7.53;;
39874;SDS011;25547;52.530;13.194;2022-08-19T03:36:40;10.63;;;6.93;;
39874;SDS011;25547;52.530;13.194;2022-08-19T03:39:09;10.57;;;6.97;;
39874;SDS011;25547;52.530;13.194;2022-08-19T03:41:39;11.00;;;6.55;;
39874;SDS011;25547;52.530;13.194;2022-08-19T03:44:06;10.02;;;6.90;;
39874;SDS011;25547;52.530;13.194;2022-08-19T03:46:33;10.02;;;6.32;;
39874;SDS011;25547;52.530;13.194;2022-08-19T03:49:04;9.07;;;6.53;;
39874;SDS011;25547;52.530;13.194;2022-08-19T03:51:38;8.60;;;6.60;;
39874;SDS011;25547;52.530;13.194;2022-08-19T03:54:06;9.98;;;7.10;;
39874;SDS011;25547;52.530;13.194;2022-08-19T03:56:37;8.25;;;6.55;;
39874;SDS011;25547;52.530;13.194;2022-08-19T03:59:07;11.35;;;6.15;;
39874;SDS011;25547;52.530;13.194;2022-08-19T04:01:35;9.93;;;6.82;;
39874;SDS011;25547;52.530;13.194;2022-08-19T04:04:02;7.65;;;6.03;;
39874;SDS011;25547;52.530;13.194;2022-08-19T04:06:29;6.80;;;5.40;;
39874;SDS011;25547;52.530;13.194;2022-08-19T04:09:00;7.13;;;5.78;;
39874;SDS011;25547;52.530;13.194;2022-08-19T04:11:30;8.63;;;5.85;;
39874;SDS011;25547;52.530;13.194;2022-08-19T04:16:28;5.70;;;5.10;;
39874;SDS011;25547;52.530;13.194;2022-08-19T04:18:54;6.30;;;5.03;;
39874;SDS011;25547;52.530;13.194;2022-08-19T04:21:26;7.93;;;5.97;;
39874;SDS011;25547;52.530;13.194;2022-08-19T04:23:55;7.88;;;5.30;;
39874;SDS011;25547;52.530;13.194;2022-08-19T04:26:23;11.02;;;7.57;;
39874;SDS011;25547;52.530;13.194;2022-08-19T04:28:56;6.50;;;5.68;;
39874;SDS011;25547;52.530;13.194;2022-08-19T04:31:22;5.57;;;4.85;;
39874;SDS011;25547;52.530;13.194;2022-08-19T04:33:52;6.82;;;5.15;;
39874;SDS011;25547;52.530;13.194;2022-08-19T04:36:20;9.65;;;5.30;;
39874;SDS011;25547;52.530;13.194;2022-08-19T04:38:48;13.40;;;6.25;;
39874;SDS011;25547;52.530;13.194;2022-08-19T04:41:21;8.70;;;6.28;;
39874;SDS011;25547;52.530;13.194;2022-08-19T04:44:06;7.72;;;5.95;;
39874;SDS011;25547;52.530;13.194;2022-08-19T04:46:32;7.55;;;5.47;;
39874;SDS011;25547;52.530;13.194;2022-08-19T04:48:58;6.68;;;5.10;;
39874;SDS011;25547;52.530;13.194;2022-08-19T04:51:25;9.45;;;6.15;;
39874;SDS011;25547;52.530;13.194;2022-08-19T04:53:51;7.35;;;5.88;;
39874;SDS011;25547;52.530;13.194;2022-08-19T04:56:17;7.50;;;4.57;;
39874;SDS011;25547;52.530;13.194;2022-08-19T04:58:46;5.97;;;4.65;;
39874;SDS011;25547;52.530;13.194;2022-08-19T05:01:12;6.65;;;5.15;;
39874;SDS011;25547;52.530;13.194;2022-08-19T05:03:50;7.43;;;5.68;;
39874;SDS011;25547;52.530;13.194;2022-08-19T05:06:16;7.85;;;6.00;;
39874;SDS011;25547;52.530;13.194;2022-08-19T05:08:44;8.27;;;4.65;;
39874;SDS011;25547;52.530;13.194;2022-08-19T05:11:11;5.60;;;4.95;;
39874;SDS011;25547;52.530;13.194;2022-08-19T05:13:43;8.73;;;6.18;;
39874;SDS011;25547;52.530;13.194;2022-08-19T05:16:11;7.93;;;6.20;;
39874;SDS011;25547;52.530;13.194;2022-08-19T05:18:38;6.55;;;5.57;;
39874;SDS011;25547;52.530;13.194;2022-08-19T05:21:23;6.53;;;5.60;;
39874;SDS011;25547;52.530;13.194;2022-08-19T05:24:10;8.52;;;6.65;;
39874;SDS011;25547;52.530;13.194;2022-08-19T05:26:36;7.72;;;5.55;;
39874;SDS011;25547;52.530;13.194;2022-08-19T05:29:06;7.88;;;5.30;;
39874;SDS011;25547;52.530;13.194;2022-08-19T05:31:33;10.27;;;6.78;;
39874;SDS011;25547;52.530;13.194;2022-08-19T05:34:03;9.07;;;5.97;;
39874;SDS011;25547;52.530;13.194;2022-08-19T05:36:33;9.60;;;6.00;;
39874;SDS011;25547;52.530;13.194;2022-08-19T05:39:00;8.38;;;5.30;;
39874;SDS011;25547;52.530;13.194;2022-08-19T05:41:27;8.40;;;5.97;;
39874;SDS011;25547;52.530;13.194;2022-08-19T05:43:54;9.73;;;5.00;;
39874;SDS011;25547;52.530;13.194;2022-08-19T05:46:21;7.22;;;5.70;;
39874;SDS011;25547;52.530;13.194;2022-08-19T05:48:47;6.20;;;4.50;;
39874;SDS011;25547;52.530;13.194;2022-08-19T05:51:13;5.90;;;4.75;;
39874;SDS011;25547;52.530;13.194;2022-08-19T05:53:42;8.02;;;5.28;;
39874;SDS011;25547;52.530;13.194;2022-08-19T05:56:12;7.60;;;5.35;;
39874;SDS011;25547;52.530;13.194;2022-08-19T05:58:42;9.95;;;5.70;;
39874;SDS011;25547;52.530;13.194;2022-08-19T06:01:14;7.88;;;5.57;;
39874;SDS011;25547;52.530;13.194;2022-08-19T06:03:42;8.75;;;6.18;;
39874;SDS011;25547;52.530;13.194;2022-08-19T06:06:09;6.28;;;4.97;;
39874;SDS011;25547;52.530;13.194;2022-08-19T06:08:38;7.43;;;5.57;;
39874;SDS011;25547;52.530;13.194;2022-08-19T06:11:20;7.32;;;5.68;;
39874;SDS011;25547;52.530;13.194;2022-08-19T06:13:59;7.10;;;5.38;;
39874;SDS011;25547;52.530;13.194;2022-08-19T06:16:29;9.38;;;5.35;;
39874;SDS011;25547;52.530;13.194;2022-08-19T06:18:56;9.15;;;6.53;;
39874;SDS011;25547;52.530;13.194;2022-08-19T06:21:26;7.90;;;6.30;;
39874;SDS011;25547;52.530;13.194;2022-08-19T06:23:53;7.43;;;5.50;;
39874;SDS011;25547;52.530;13.194;2022-08-19T06:26:19;7.88;;;5.43;;
39874;SDS011;25547;52.530;13.194;2022-08-19T06:28:46;9.35;;;6.05;;
39874;SDS011;25547;52.530;13.194;2022-08-19T06:31:14;9.07;;;5.28;;
39874;SDS011;25547;52.530;13.194;2022-08-19T06:33:41;10.13;;;7.13;;
39874;SDS011;25547;52.530;13.194;2022-08-19T06:36:15;7.07;;;5.35;;
39874;SDS011;25547;52.530;13.194;2022-08-19T06:38:42;8.48;;;6.10;;
39874;SDS011;25547;52.530;13.194;2022-08-19T06:41:08;7.07;;;5.05;;
39874;SDS011;25547;52.530;13.194;2022-08-19T06:43:34;9.07;;;5.90;;
39874;SDS011;25547;52.530;13.194;2022-08-19T06:46:01;9.40;;;6.15;;
39874;SDS011;25547;52.530;13.194;2022-08-19T06:48:28;8.15;;;6.00;;
39874;SDS011;25547;52.530;13.194;2022-08-19T06:50:54;8.50;;;6.65;;
39874;SDS011;25547;52.530;13.194;2022-08-19T06:53:20;8.25;;;6.70;;
39874;SDS011;25547;52.530;13.194;2022-08-19T06:55:46;8.80;;;6.10;;
39874;SDS011;25547;52.530;13.194;2022-08-19T06:58:12;8.60;;;6.22;;
39874;SDS011;25547;52.530;13.194;2022-08-19T07:00:39;9.85;;;5.53;;
39874;SDS011;25547;52.530;13.194;2022-08-19T07:03:05;8.82;;;6.25;;
39874;SDS011;25547;52.530;13.194;2022-08-19T07:05:37;11.63;;;6.20;;
39874;SDS011;25547;52.530;13.194;2022-08-19T07:08:06;10.18;;;6.93;;
39874;SDS011;25547;52.530;13.194;2022-08-19T07:10:32;8.35;;;6.88;;
39874;SDS011;25547;52.530;13.194;2022-08-19T07:12:59;10.70;;;7.38;;
39874;SDS011;25547;52.530;13.194;2022-08-19T07:15:25;9.82;;;7.20;;
39874;SDS011;25547;52.530;13.194;2022-08-19T07:17:54;10.25;;;7.15;;
39874;SDS011;25547;52.530;13.194;2022-08-19T07:20:20;8.65;;;6.65;;
39874;SDS011;25547;52.530;13.194;2022-08-19T07:22:45;9.77;;;7.35;;
39874;SDS011;25547;52.530;13.194;2022-08-19T07:25:11;8.65;;;7.72;;
39874;SDS011;25547;52.530;13.194;2022-08-19T07:27:40;10.13;;;7.50;;
39874;SDS011;25547;52.530;13.194;2022-08-19T07:30:07;9.15;;;7.53;;
39874;SDS011;25547;52.530;13.194;2022-08-19T07:32:33;8.35;;;7.22;;
39874;SDS011;25547;52.530;13.194;2022-08-19T07:34:59;8.93;;;7.63;;
39874;SDS011;25547;52.530;13.194;2022-08-19T07:37:30;10.35;;;8.15;;
39874;SDS011;25547;52.530;13.194;2022-08-19T07:39:58;10.60;;;7.18;;
39874;SDS011;25547;52.530;13.194;2022-08-19T07:42:27;8.50;;;6.90;;
39874;SDS011;25547;52.530;13.194;2022-08-19T07:44:54;11.43;;;8.20;;
39874;SDS011;25547;52.530;13.194;2022-08-19T07:47:20;9.80;;;7.43;;
39874;SDS011;25547;52.530;13.194;2022-08-19T07:49:46;12.48;;;8.25;;
39874;SDS011;25547;52.530;13.194;2022-08-19T07:52:13;12.25;;;7.90;;
39874;SDS011;25547;52.530;13.194;2022-08-19T07:54:39;9.98;;;7.65;;
39874;SDS011;25547;52.530;13.194;2022-08-19T07:57:05;10.93;;;6.93;;
39874;SDS011;25547;52.530;13.194;2022-08-19T07:59:35;10.50;;;7.38;;
39874;SDS011;25547;52.530;13.194;2022-08-19T08:02:01;10.20;;;7.57;;
39874;SDS011;25547;52.530;13.194;2022-08-19T08:04:28;9.43;;;7.97;;
39874;SDS011;25547;52.530;13.194;2022-08-19T08:07:14;8.23;;;7.18;;
39874;SDS011;25547;52.530;13.194;2022-08-19T08:09:59;8.20;;;7.25;;
39874;SDS011;25547;52.530;13.194;2022-08-19T08:12:28;8.00;;;7.20;;
39874;SDS011;25547;52.530;13.194;2022-08-19T08:15:00;10.80;;;7.18;;
39874;SDS011;25547;52.530;13.194;2022-08-19T08:17:31;8.07;;;7.28;;
39874;SDS011;25547;52.530;13.194;2022-08-19T08:19:59;7.95;;;7.15;;
39874;SDS011;25547;52.530;13.194;2022-08-19T08:22:25;8.57;;;7.70;;
39874;SDS011;25547;52.530;13.194;2022-08-19T08:25:11;7.93;;;7.13;;
39874;SDS011;25547;52.530;13.194;2022-08-19T08:27:40;9.95;;;7.18;;
39874;SDS011;25547;52.530;13.194;2022-08-19T08:30:11;8.63;;;7.30;;
39874;SDS011;25547;52.530;13.194;2022-08-19T08:32:40;10.52;;;8.00;;
39874;SDS011;25547;52.530;13.194;2022-08-19T08:35:07;10.52;;;7.68;;
39874;SDS011;25547;52.530;13.194;2022-08-19T08:37:37;9.32;;;7.22;;
39874;SDS011;25547;52.530;13.194;2022-08-19T08:40:05;11.55;;;8.23;;
39874;SDS011;25547;52.530;13.194;2022-08-19T08:42:43;8.40;;;7.57;;
39874;SDS011;25547;52.530;13.194;2022-08-19T08:45:18;9.65;;;7.18;;
39874;SDS011;25547;52.530;13.194;2022-08-19T08:47:48;7.70;;;6.90;;
39874;SDS011;25547;52.530;13.194;2022-08-19T08:53:20;10.05;;;8.30;;
39874;SDS011;25547;52.530;13.194;2022-08-19T08:55:46;9.05;;;8.07;;
39874;SDS011;25547;52.530;13.194;2022-08-19T08:58:29;10.52;;;8.10;;
39874;SDS011;25547;52.530;13.194;2022-08-19T09:01:12;10.13;;;7.72;;
39874;SDS011;25547;52.530;13.194;2022-08-19T09:03:41;9.13;;;6.95;;
39874;SDS011;25547;52.530;13.194;2022-08-19T09:11:54;8.30;;;7.35;;
39874;SDS011;25547;52.530;13.194;2022-08-19T09:17:25;9.15;;;7.65;;
39874;SDS011;25547;52.530;13.194;2022-08-19T09:22:39;11.88;;;8.38;;
39874;SDS011;25547;52.530;13.194;2022-08-19T09:25:09;8.82;;;7.65;;
39874;SDS011;25547;52.530;13.194;2022-08-19T09:27:38;7.68;;;6.85;;
39874;SDS011;25547;52.530;13.194;2022-08-19T09:30:05;8.55;;;7.60;;
39874;SDS011;25547;52.530;13.194;2022-08-19T09:32:32;11.10;;;7.38;;
39874;SDS011;25547;52.530;13.194;2022-08-19T09:34:58;8.77;;;6.90;;
39874;SDS011;25547;52.530;13.194;2022-08-19T09:37:25;9.43;;;7.38;;
39874;SDS011;25547;52.530;13.194;2022-08-19T09:39:51;9.30;;;7.47;;
39874;SDS011;25547;52.530;13.194;2022-08-19T09:42:17;9.73;;;7.95;;
39874;SDS011;25547;52.530;13.194;2022-08-19T09:44:43;10.32;;;8.25;;
39874;SDS011;25547;52.530;13.194;2022-08-19T09:47:10;10.50;;;8.43;;
39874;SDS011;25547;52.530;13.194;2022-08-19T09:49:36;8.30;;;7.47;;
39874;SDS011;25547;52.530;13.194;2022-08-19T09:52:05;10.70;;;7.18;;
39874;SDS011;25547;52.530;13.194;2022-08-19T09:54:33;10.13;;;7.10;;
39874;SDS011;25547;52.530;13.194;2022-08-19T09:56:59;7.70;;;6.88;;
39874;SDS011;25547;52.530;13.194;2022-08-19T09:59:28;7.57;;;6.43;;
39874;SDS011;25547;52.530;13.194;2022-08-19T10:01:57;9.40;;;7.22;;
39874;SDS011;25547;52.530;13.194;2022-08-19T10:04:25;10.65;;;7.55;;
39874;SDS011;25547;52.530;13.194;2022-08-19T10:07:13;8.57;;;7.40;;
39874;SDS011;25547;52.530;13.194;2022-08-19T10:09:39;8.57;;;7.18;;
39874;SDS011;25547;52.530;13.194;2022-08-19T10:12:07;9.02;;;6.88;;
39874;SDS011;25547;52.530;13.194;2022-08-19T10:14:36;9.55;;;7.20;;
39874;SDS011;25547;52.530;13.194;2022-08-19T10:17:04;9.50;;;7.43;;
39874;SDS011;25547;52.530;13.194;2022-08-19T10:19:35;9.10;;;7.13;;
39874;SDS011;25547;52.530;13.194;2022-08-19T10:22:07;9.02;;;6.32;;
39874;SDS011;25547;52.530;13.194;2022-08-19T10:24:39;10.18;;;6.68;;
39874;SDS011;25547;52.530;13.194;2022-08-19T10:27:07;7.65;;;6.50;;
39874;SDS011;25547;52.530;13.194;2022-08-19T10:29:36;11.75;;;7.18;;
39874;SDS011;25547;52.530;13.194;2022-08-19T10:32:05;5.90;;;5.25;;
39874;SDS011;25547;52.530;13.194;2022-08-19T10:37:04;9.70;;;5.32;;
39874;SDS011;25547;52.530;13.194;2022-08-19T10:39:31;5.80;;;5.20;;
39874;SDS011;25547;52.530;13.194;2022-08-19T10:41:59;6.38;;;5.53;;
39874;SDS011;25547;52.530;13.194;2022-08-19T10:44:28;5.70;;;5.10;;
39874;SDS011;25547;52.530;13.194;2022-08-19T10:46:55;5.85;;;5.07;;
39874;SDS011;25547;52.530;13.194;2022-08-19T10:49:20;8.38;;;5.72;;
39874;SDS011;25547;52.530;13.194;2022-08-19T10:51:49;7.25;;;5.28;;
39874;SDS011;25547;52.530;13.194;2022-08-19T10:54:33;7.32;;;5.90;;
39874;SDS011;25547;52.530;13.194;2022-08-19T10:57:17;6.97;;;5.80;;
39874;SDS011;25547;52.530;13.194;2022-08-19T10:59:49;6.07;;;5.47;;
39874;SDS011;25547;52.530;13.194;2022-08-19T11:02:19;6.60;;;4.68;;
39874;SDS011;25547;52.530;13.194;2022-08-19T11:04:44;8.10;;;5.30;;
39874;SDS011;25547;52.530;13.194;2022-08-19T11:07:14;7.07;;;6.03;;
39874;SDS011;25547;52.530;13.194;2022-08-19T11:09:43;7.95;;;6.00;;
39874;SDS011;25547;52.530;13.194;2022-08-19T11:12:13;5.93;;;4.78;;
39874;SDS011;25547;52.530;13.194;2022-08-19T11:14:40;6.30;;;5.05;;
39874;SDS011;25547;52.530;13.194;2022-08-19T11:17:08;8.02;;;4.72;;
39874;SDS011;25547;52.530;13.194;2022-08-19T11:19:34;6.50;;;4.95;;
39874;SDS011;25547;52.530;13.194;2022-08-19T11:22:00;6.32;;;5.05;;
39874;SDS011;25547;52.530;13.194;2022-08-19T11:24:28;6.15;;;4.82;;
39874;SDS011;25547;52.530;13.194;2022-08-19T11:27:00;6.93;;;4.35;;
39874;SDS011;25547;52.530;13.194;2022-08-19T11:29:29;4.65;;;3.75;;
39874;SDS011;25547;52.530;13.194;2022-08-19T11:31:56;5.97;;;3.50;;
39874;SDS011;25547;52.530;13.194;2022-08-19T11:34:24;5.22;;;4.13;;
39874;SDS011;25547;52.530;13.194;2022-08-19T11:36:52;5.10;;;4.03;;
39874;SDS011;25547;52.530;13.194;2022-08-19T11:39:23;5.82;;;4.00;;
39874;SDS011;25547;52.530;13.194;2022-08-19T11:41:50;5.00;;;4.38;;
39874;SDS011;25547;52.530;13.194;2022-08-19T11:44:16;5.28;;;4.10;;
39874;SDS011;25547;52.530;13.194;2022-08-19T11:46:44;5.78;;;4.07;;
39874;SDS011;25547;52.530;13.194;2022-08-19T11:49:12;4.68;;;4.15;;
39874;SDS011;25547;52.530;13.194;2022-08-19T11:51:44;4.90;;;4.10;;
39874;SDS011;25547;52.530;13.194;2022-08-19T11:54:12;5.82;;;3.78;;
39874;SDS011;25547;52.530;13.194;2022-08-19T11:56:42;7.30;;;4.22;;
39874;SDS011;25547;52.530;13.194;2022-08-19T11:59:11;5.25;;;3.70;;
39874;SDS011;25547;52.530;13.194;2022-08-19T12:01:36;3.80;;;2.92;;
39874;SDS011;25547;52.530;13.194;2022-08-19T12:04:02;4.95;;;3.55;;
39874;SDS011;25547;52.530;13.194;2022-08-19T12:06:37;3.78;;;3.30;;
39874;SDS011;25547;52.530;13.194;2022-08-19T12:09:08;4.22;;;3.05;;
39874;SDS011;25547;52.530;13.194;2022-08-19T12:11:35;4.63;;;3.00;;
39874;SDS011;25547;52.530;13.194;2022-08-19T12:14:02;4.07;;;3.67;;
39874;SDS011;25547;52.530;13.194;2022-08-19T12:16:28;3.88;;;3.25;;
39874;SDS011;25547;52.530;13.194;2022-08-19T12:18:56;5.18;;;4.15;;
39874;SDS011;25547;52.530;13.194;2022-08-19T12:21:23;4.85;;;3.35;;
39874;SDS011;25547;52.530;13.194;2022-08-19T12:23:54;3.35;;;2.80;;
39874;SDS011;25547;52.530;13.194;2022-08-19T12:26:24;5.20;;;2.90;;
39874;SDS011;25547;52.530;13.194;2022-08-19T12:28:53;5.10;;;3.20;;
39874;SDS011;25547;52.530;13.194;2022-08-19T12:31:19;5.97;;;2.97;;
39874;SDS011;25547;52.530;13.194;2022-08-19T12:33:45;4.60;;;2.55;;
39874;SDS011;25547;52.530;13.194;2022-08-19T12:36:14;3.58;;;3.28;;
39874;SDS011;25547;52.530;13.194;2022-08-19T12:38:41;4.13;;;2.88;;
39874;SDS011;25547;52.530;13.194;2022-08-19T12:41:10;3.05;;;2.72;;
39874;SDS011;25547;52.530;13.194;2022-08-19T12:43:37;4.00;;;3.15;;
39874;SDS011;25547;52.530;13.194;2022-08-19T12:46:04;4.45;;;2.80;;
39874;SDS011;25547;52.530;13.194;2022-08-19T12:48:30;4.40;;;3.28;;
39874;SDS011;25547;52.530;13.194;2022-08-19T12:50:57;3.30;;;3.00;;
39874;SDS011;25547;52.530;13.194;2022-08-19T12:53:22;12.88;;;8.27;;
39874;SDS011;25547;52.530;13.194;2022-08-19T12:55:54;3.42;;;2.80;;
39874;SDS011;25547;52.530;13.194;2022-08-19T12:58:23;5.80;;;3.50;;
39874;SDS011;25547;52.530;13.194;2022-08-19T13:00:51;3.63;;;2.95;;
39874;SDS011;25547;52.530;13.194;2022-08-19T13:03:19;3.47;;;2.85;;
39874;SDS011;25547;52.530;13.194;2022-08-19T13:05:47;3.97;;;3.60;;
39874;SDS011;25547;52.530;13.194;2022-08-19T13:08:15;7.45;;;3.10;;
39874;SDS011;25547;52.530;13.194;2022-08-19T13:10:41;4.22;;;3.50;;
39874;SDS011;25547;52.530;13.194;2022-08-19T13:13:08;3.95;;;3.05;;
39874;SDS011;25547;52.530;13.194;2022-08-19T13:15:35;3.97;;;3.28;;
39874;SDS011;25547;52.530;13.194;2022-08-19T13:18:04;4.50;;;3.85;;
39874;SDS011;25547;52.530;13.194;2022-08-19T13:20:34;3.28;;;2.47;;
39874;SDS011;25547;52.530;13.194;2022-08-19T13:23:00;3.45;;;3.15;;
39874;SDS011;25547;52.530;13.194;2022-08-19T13:25:26;4.60;;;3.08;;
39874;SDS011;25547;52.530;13.194;2022-08-19T13:27:52;4.05;;;2.85;;
39874;SDS011;25547;52.530;13.194;2022-08-19T13:30:22;4.13;;;3.22;;
39874;SDS011;25547;52.530;13.194;2022-08-19T13:33:08;5.60;;;3.03;;
39874;SDS011;25547;52.530;13.194;2022-08-19T13:38:10;6.63;;;3.33;;
39874;SDS011;25547;52.530;13.194;2022-08-19T13:40:36;6.20;;;3.67;;
39874;SDS011;25547;52.530;13.194;2022-08-19T13:43:03;4.15;;;3.75;;
39874;SDS011;25547;52.530;13.194;2022-08-19T13:45:30;4.63;;;3.00;;
39874;SDS011;25547;52.530;13.194;2022-08-19T13:48:03;3.80;;;3.40;;
39874;SDS011;25547;52.530;13.194;2022-08-19T13:50:33;4.10;;;3.10;;
39874;SDS011;25547;52.530;13.194;2022-08-19T13:53:06;4.60;;;4.18;;
39874;SDS011;25547;52.530;13.194;2022-08-19T13:55:33;4.88;;;3.63;;
39874;SDS011;25547;52.530;13.194;2022-08-19T13:57:59;4.95;;;3.50;;
39874;SDS011;25547;52.530;13.194;2022-08-19T14:00:28;3.35;;;3.05;;
39874;SDS011;25547;52.530;13.194;2022-08-19T14:02:56;5.57;;;3.95;;
39874;SDS011;25547;52.530;13.194;2022-08-19T14:05:22;4.13;;;3.72;;
39874;SDS011;25547;52.530;13.194;2022-08-19T14:07:52;3.72;;;2.55;;
39874;SDS011;25547;52.530;13.194;2022-08-19T14:10:18;3.65;;;2.80;;
39874;SDS011;25547;52.530;13.194;2022-08-19T14:12:45;4.47;;;3.17;;
39874;SDS011;25547;52.530;13.194;2022-08-19T14:15:16;4.07;;;3.60;;
39874;SDS011;25547;52.530;13.194;2022-08-19T14:17:44;8.18;;;2.80;;
39874;SDS011;25547;52.530;13.194;2022-08-19T14:20:13;3.95;;;3.15;;
39874;SDS011;25547;52.530;13.194;2022-08-19T14:22:40;5.40;;;3.42;;
39874;SDS011;25547;52.530;13.194;2022-08-19T14:25:08;4.55;;;3.67;;
39874;SDS011;25547;52.530;13.194;2022-08-19T14:27:39;5.38;;;4.35;;
39874;SDS011;25547;52.530;13.194;2022-08-19T14:30:06;4.88;;;3.00;;
39874;SDS011;25547;52.530;13.194;2022-08-19T14:32:36;3.83;;;2.95;;
39874;SDS011;25547;52.530;13.194;2022-08-19T14:35:02;5.07;;;3.60;;
39874;SDS011;25547;52.530;13.194;2022-08-19T14:37:28;3.92;;;3.47;;
39874;SDS011;25547;52.530;13.194;2022-08-19T14:39:57;6.93;;;3.10;;
39874;SDS011;25547;52.530;13.194;2022-08-19T14:42:22;2.95;;;2.65;;
39874;SDS011;25547;52.530;13.194;2022-08-19T14:44:50;4.32;;;3.53;;
39874;SDS011;25547;52.530;13.194;2022-08-19T14:47:16;4.82;;;3.30;;
39874;SDS011;25547;52.530;13.194;2022-08-19T14:49:41;3.90;;;2.78;;
39874;SDS011;25547;52.530;13.194;2022-08-19T14:52:07;6.28;;;3.53;;
39874;SDS011;25547;52.530;13.194;2022-08-19T14:54:38;6.47;;;3.45;;
39874;SDS011;25547;52.530;13.194;2022-08-19T14:57:10;3.95;;;2.78;;
39874;SDS011;25547;52.530;13.194;2022-08-19T14:59:37;3.67;;;3.13;;
39874;SDS011;25547;52.530;13.194;2022-08-19T15:02:04;4.00;;;3.22;;
39874;SDS011;25547;52.530;13.194;2022-08-19T15:04:30;4.15;;;3.00;;
39874;SDS011;25547;52.530;13.194;2022-08-19T15:06:58;5.13;;;3.90;;
39874;SDS011;25547;52.530;13.194;2022-08-19T15:09:31;7.45;;;3.75;;
39874;SDS011;25547;52.530;13.194;2022-08-19T15:11:57;4.30;;;3.90;;